createdAt,value
2022-10-15T00:01:34.323Z,954.72
2022-10-15T00:06:26.921Z,954.69
2022-10-15T00:08:53.295Z,954.62
2022-10-15T00:11:19.617Z,954.58
2022-10-15T00:13:45.958Z,954.61
2022-10-15T00:16:12.306Z,954.62
2022-10-15T00:18:38.645Z,954.59
2022-10-15T00:21:05.001Z,954.55
2022-10-15T00:23:31.323Z,954.52
2022-10-15T00:25:57.646Z,954.49
2022-10-15T00:28:24.070Z,954.47
2022-10-15T00:30:50.324Z,954.52
2022-10-15T00:33:16.643Z,954.46
2022-10-15T00:35:42.966Z,954.43
2022-10-15T00:38:09.322Z,954.40
2022-10-15T00:40:35.652Z,954.39
2022-10-15T00:43:01.993Z,954.32
2022-10-15T00:45:28.351Z,954.32
2022-10-15T00:47:54.663Z,954.32
2022-10-15T00:50:20.985Z,954.30
2022-10-15T00:52:47.327Z,954.29
2022-10-15T00:55:13.681Z,954.31
2022-10-15T00:57:40.018Z,954.26
2022-10-15T01:00:06.335Z,954.21
2022-10-15T01:02:32.652Z,954.25
2022-10-15T01:04:58.982Z,954.28
2022-10-15T01:07:25.300Z,954.31
2022-10-15T01:09:51.642Z,954.28
2022-10-15T01:12:17.981Z,954.28
2022-10-15T01:14:44.312Z,954.26
2022-10-15T01:17:10.649Z,954.29
2022-10-15T01:19:37.029Z,954.30
2022-10-15T01:22:03.346Z,954.21
2022-10-15T01:24:29.683Z,954.22
2022-10-15T01:26:56.043Z,954.32
2022-10-15T01:29:22.391Z,954.24
2022-10-15T01:31:48.726Z,954.30
2022-10-15T01:36:41.402Z,954.28
2022-10-15T01:39:07.724Z,954.28
2022-10-15T01:41:34.115Z,954.31
2022-10-15T01:44:00.457Z,954.26
2022-10-15T01:46:26.817Z,954.27
2022-10-15T01:48:53.162Z,954.26
2022-10-15T01:51:19.505Z,954.34
2022-10-15T01:53:46.011Z,954.30
2022-10-15T01:56:12.325Z,954.33
2022-10-15T01:58:38.651Z,954.27
2022-10-15T02:01:04.994Z,954.28
2022-10-15T02:03:31.320Z,954.24
2022-10-15T02:05:57.637Z,954.23
2022-10-15T02:08:23.968Z,954.30
2022-10-15T02:10:50.347Z,954.26
2022-10-15T02:13:16.666Z,954.29
2022-10-15T02:15:42.983Z,954.23
2022-10-15T02:18:09.354Z,954.25
2022-10-15T02:20:35.699Z,954.23
2022-10-15T02:23:02.013Z,954.33
2022-10-15T02:25:28.356Z,954.28
2022-10-15T02:27:54.698Z,954.27
2022-10-15T02:30:21.045Z,954.36
2022-10-15T02:32:47.380Z,954.35
2022-10-15T02:35:13.720Z,954.35
2022-10-15T02:37:40.061Z,954.38
2022-10-15T02:40:06.397Z,954.28
2022-10-15T02:42:32.719Z,954.35
2022-10-15T02:44:59.039Z,954.28
2022-10-15T02:49:51.719Z,954.19
2022-10-15T02:52:18.061Z,954.24
2022-10-15T02:54:44.418Z,954.32
2022-10-15T02:57:10.736Z,954.22
2022-10-15T02:59:37.053Z,954.30
2022-10-15T03:02:03.400Z,954.32
2022-10-15T03:04:29.740Z,954.28
2022-10-15T03:06:56.057Z,954.30
2022-10-15T03:09:22.395Z,954.30
2022-10-15T03:11:48.744Z,954.19
2022-10-15T03:14:15.052Z,954.27
2022-10-15T03:16:41.377Z,954.18
2022-10-15T03:19:07.721Z,954.19
2022-10-15T03:21:34.063Z,954.28
2022-10-15T03:24:00.393Z,954.31
2022-10-15T03:26:26.744Z,954.29
2022-10-15T03:28:53.109Z,954.33
2022-10-15T03:31:19.391Z,954.38
2022-10-15T03:33:45.701Z,954.32
2022-10-15T03:36:12.048Z,954.39
2022-10-15T03:38:38.384Z,954.37
2022-10-15T03:41:04.707Z,954.32
2022-10-15T03:43:31.024Z,954.35
2022-10-15T03:45:57.427Z,954.42
2022-10-15T03:48:23.761Z,954.43
2022-10-15T03:50:50.103Z,954.42
2022-10-15T03:53:16.418Z,954.39
2022-10-15T03:55:42.763Z,954.39
2022-10-15T03:58:09.111Z,954.40
2022-10-15T04:00:35.449Z,954.41
2022-10-15T04:03:01.767Z,954.44
2022-10-15T04:05:28.089Z,954.45
2022-10-15T04:07:54.467Z,954.46
2022-10-15T04:10:20.814Z,954.47
2022-10-15T04:12:47.157Z,954.50
2022-10-15T04:15:13.504Z,954.50
2022-10-15T04:17:39.895Z,954.54
2022-10-15T04:20:06.163Z,954.48
2022-10-15T04:22:32.515Z,954.51
2022-10-15T04:24:58.842Z,954.49
2022-10-15T04:27:25.187Z,954.47
2022-10-15T04:29:51.509Z,954.50
2022-10-15T04:32:17.850Z,954.45
2022-10-15T04:34:44.193Z,954.41
2022-10-15T04:37:10.509Z,954.43
2022-10-15T04:39:36.854Z,954.53
2022-10-15T04:42:03.189Z,954.49
2022-10-15T04:44:29.573Z,954.52
2022-10-15T04:46:55.914Z,954.54
2022-10-15T04:49:22.233Z,954.56
2022-10-15T04:51:48.556Z,954.67
2022-10-15T04:54:14.966Z,954.61
2022-10-15T04:56:41.234Z,954.61
2022-10-15T04:59:07.585Z,954.65
2022-10-15T05:01:33.904Z,954.55
2022-10-15T05:04:00.242Z,954.65
2022-10-15T05:06:26.556Z,954.64
2022-10-15T05:08:52.881Z,954.64
2022-10-15T05:11:19.218Z,954.68
2022-10-15T05:13:45.542Z,954.73
2022-10-15T05:16:11.878Z,954.77
2022-10-15T05:18:38.215Z,954.79
2022-10-15T05:21:04.534Z,954.82
2022-10-15T05:23:30.863Z,954.79
2022-10-15T05:25:57.185Z,954.82
2022-10-15T05:28:23.561Z,954.83
2022-10-15T05:30:49.832Z,954.87
2022-10-15T05:33:16.177Z,954.87
2022-10-15T05:35:42.490Z,954.90
2022-10-15T05:38:08.814Z,954.92
2022-10-15T05:40:35.158Z,954.97
2022-10-15T05:43:01.517Z,954.99
2022-10-15T05:45:27.823Z,955.02
2022-10-15T05:47:54.228Z,954.95
2022-10-15T05:50:20.600Z,955.02
2022-10-15T05:52:46.890Z,954.97
2022-10-15T05:55:13.215Z,955.06
2022-10-15T05:57:39.597Z,955.05
2022-10-15T06:00:05.959Z,955.12
2022-10-15T06:02:32.399Z,955.09
2022-10-15T06:04:58.652Z,955.07
2022-10-15T06:07:25.368Z,955.16
2022-10-15T06:09:51.385Z,955.12
2022-10-15T06:12:17.709Z,955.11
2022-10-15T06:14:44.047Z,955.18
2022-10-15T06:17:10.465Z,955.11
2022-10-15T06:19:36.803Z,955.20
2022-10-15T06:22:03.146Z,955.21
2022-10-15T06:24:29.468Z,955.24
2022-10-15T06:26:55.797Z,955.26
2022-10-15T06:29:22.134Z,955.25
2022-10-15T06:31:48.476Z,955.35
2022-10-15T06:34:14.800Z,955.36
2022-10-15T06:36:41.179Z,955.42
2022-10-15T06:39:07.493Z,955.35
2022-10-15T06:41:33.838Z,955.45
2022-10-15T06:44:00.243Z,955.51
2022-10-15T06:46:26.539Z,955.42
2022-10-15T06:48:52.859Z,955.45
2022-10-15T06:51:19.212Z,955.46
2022-10-15T06:53:45.525Z,955.41
2022-10-15T06:56:11.866Z,955.41
2022-10-15T06:58:38.182Z,955.45
2022-10-15T07:01:04.517Z,955.46
2022-10-15T07:03:30.887Z,955.49
2022-10-15T07:05:57.229Z,955.55
2022-10-15T07:08:23.546Z,955.53
2022-10-15T07:10:49.880Z,955.63
2022-10-15T07:13:16.222Z,955.60
2022-10-15T07:15:42.580Z,955.57
2022-10-15T07:18:08.921Z,955.66
2022-10-15T07:20:35.263Z,955.60
2022-10-15T07:23:01.626Z,955.62
2022-10-15T07:25:27.949Z,955.59
2022-10-15T07:27:54.292Z,955.56
2022-10-15T07:30:20.635Z,955.54
2022-10-15T07:32:46.973Z,955.53
2022-10-15T07:35:13.314Z,955.51
2022-10-15T07:37:39.629Z,955.54
2022-10-15T07:40:05.971Z,955.57
2022-10-15T07:42:32.332Z,955.54
2022-10-15T07:44:58.651Z,955.59
2022-10-15T07:47:25.363Z,955.62
2022-10-15T07:49:51.363Z,955.62
2022-10-15T07:52:17.697Z,955.64
2022-10-15T07:54:44.045Z,955.61
2022-10-15T07:57:10.383Z,955.63
2022-10-15T07:59:36.767Z,955.72
2022-10-15T08:02:03.113Z,955.71
2022-10-15T08:04:29.449Z,955.63
2022-10-15T08:06:55.792Z,955.69
2022-10-15T08:09:22.127Z,955.63
2022-10-15T08:11:48.464Z,955.68
2022-10-15T08:14:14.841Z,955.65
2022-10-15T08:16:41.164Z,955.61
2022-10-15T08:19:07.511Z,955.62
2022-10-15T08:21:33.882Z,955.50
2022-10-15T08:24:00.204Z,955.43
2022-10-15T08:26:26.549Z,955.48
2022-10-15T08:28:52.931Z,955.53
2022-10-15T08:31:19.194Z,955.48
2022-10-15T08:33:45.545Z,955.45
2022-10-15T08:36:11.920Z,955.46
2022-10-15T08:38:38.235Z,955.48
2022-10-15T08:41:04.577Z,955.43
2022-10-15T08:43:30.918Z,955.44
2022-10-15T08:45:57.261Z,955.42
2022-10-15T08:48:23.600Z,955.34
2022-10-15T08:50:51.770Z,955.35
2022-10-15T08:53:16.333Z,955.35
2022-10-15T08:55:42.676Z,955.34
2022-10-15T08:58:08.988Z,955.33
2022-10-15T09:00:35.317Z,955.36
2022-10-15T09:03:01.709Z,955.32
2022-10-15T09:05:27.976Z,955.35
2022-10-15T09:07:54.683Z,955.34
2022-10-15T09:10:20.721Z,955.38
2022-10-15T09:12:47.040Z,955.40
2022-10-15T09:15:13.400Z,955.38
2022-10-15T09:17:39.741Z,955.42
2022-10-15T09:20:06.061Z,955.38
2022-10-15T09:22:32.384Z,955.37
2022-10-15T09:24:58.732Z,955.39
2022-10-15T09:27:25.464Z,955.50
2022-10-15T09:29:51.446Z,955.41
2022-10-15T09:32:17.765Z,955.30
2022-10-15T09:34:44.107Z,955.25
2022-10-15T09:37:10.524Z,955.26
2022-10-15T09:39:36.872Z,955.25
2022-10-15T09:42:03.215Z,955.27
2022-10-15T09:44:29.620Z,955.28
2022-10-15T09:46:55.950Z,955.17
2022-10-15T09:49:22.289Z,955.11
2022-10-15T09:51:48.641Z,955.24
2022-10-15T09:54:14.988Z,955.34
2022-10-15T09:56:41.301Z,955.15
2022-10-15T09:59:09.593Z,955.27
2022-10-15T10:01:33.947Z,955.20
2022-10-15T10:04:00.278Z,955.20
2022-10-15T10:06:26.619Z,955.22
2022-10-15T10:08:52.965Z,955.29
2022-10-15T10:11:19.328Z,955.22
2022-10-15T10:13:45.646Z,955.21
2022-10-15T10:16:11.982Z,955.24
2022-10-15T10:18:38.365Z,955.22
2022-10-15T10:21:04.697Z,955.16
2022-10-15T10:23:31.041Z,955.15
2022-10-15T10:25:57.393Z,955.15
2022-10-15T10:28:23.790Z,955.20
2022-10-15T10:30:50.082Z,955.07
2022-10-15T10:33:16.407Z,955.06
2022-10-15T10:35:42.738Z,955.03
2022-10-15T10:38:09.059Z,955.02
2022-10-15T10:40:35.376Z,955.03
2022-10-15T10:43:01.728Z,955.07
2022-10-15T10:45:28.043Z,955.01
2022-10-15T10:47:54.374Z,954.99
2022-10-15T10:50:20.691Z,955.05
2022-10-15T10:52:47.041Z,955.03
2022-10-15T10:55:13.354Z,955.01
2022-10-15T10:57:39.703Z,955.05
2022-10-15T11:00:06.037Z,955.11
2022-10-15T11:02:32.400Z,955.02
2022-10-15T11:04:58.737Z,954.95
2022-10-15T11:07:25.523Z,954.87
2022-10-15T11:09:55.249Z,954.95
2022-10-15T11:12:17.762Z,954.96
2022-10-15T11:14:44.110Z,954.96
2022-10-15T11:17:10.441Z,954.90
2022-10-15T11:22:03.114Z,954.83
2022-10-15T11:24:33.553Z,954.82
2022-10-15T11:27:11.773Z,954.88
2022-10-15T11:29:22.194Z,954.92
2022-10-15T11:32:01.757Z,954.87
2022-10-15T11:34:14.871Z,954.84
2022-10-15T11:36:41.195Z,954.76
2022-10-15T11:39:07.541Z,954.86
2022-10-15T11:41:33.861Z,954.88
2022-10-15T11:44:00.179Z,954.83
2022-10-15T11:46:26.540Z,954.78
2022-10-15T11:48:52.879Z,954.83
2022-10-15T11:51:19.212Z,954.81
2022-10-15T11:53:45.672Z,954.66
2022-10-15T11:56:11.999Z,954.68
2022-10-15T11:58:38.319Z,954.69
2022-10-15T12:01:04.670Z,954.75
2022-10-15T12:03:30.992Z,954.77
2022-10-15T12:05:57.358Z,954.80
2022-10-15T12:08:23.689Z,954.86
2022-10-15T12:10:50.019Z,954.96
2022-10-15T12:13:16.343Z,954.91
2022-10-15T12:15:42.681Z,954.91
2022-10-15T12:18:09.014Z,954.91
2022-10-15T12:20:35.340Z,954.97
2022-10-15T12:23:01.699Z,954.88
2022-10-15T12:25:28.026Z,954.91
2022-10-15T12:27:54.362Z,954.88
2022-10-15T12:30:20.678Z,954.86
2022-10-15T12:32:47.001Z,954.82
2022-10-15T12:35:13.378Z,954.83
2022-10-15T12:37:39.659Z,954.86
2022-10-15T12:40:05.984Z,954.77
2022-10-15T12:42:32.346Z,954.73
2022-10-15T12:44:58.688Z,954.71
2022-10-15T12:47:25.339Z,954.71
2022-10-15T12:49:51.404Z,954.72
2022-10-15T12:52:17.725Z,954.73
2022-10-15T12:54:44.075Z,954.71
2022-10-15T12:57:10.391Z,954.71
2022-10-15T12:59:36.764Z,954.73
2022-10-15T13:02:03.113Z,954.71
2022-10-15T13:04:29.430Z,954.65
2022-10-15T13:06:55.789Z,954.71
2022-10-15T13:09:22.117Z,954.65
2022-10-15T13:11:48.542Z,954.72
2022-10-15T13:14:14.853Z,954.77
2022-10-15T13:16:41.188Z,954.72
2022-10-15T13:19:07.530Z,954.71
2022-10-15T13:21:33.848Z,954.66
2022-10-15T13:24:00.210Z,954.68
2022-10-15T13:26:26.561Z,954.70
2022-10-15T13:28:53.090Z,954.59
2022-10-15T13:31:19.242Z,954.62
2022-10-15T13:33:45.562Z,954.68
2022-10-15T13:36:11.890Z,954.67
2022-10-15T13:38:38.214Z,954.63
2022-10-15T13:41:04.570Z,954.69
2022-10-15T13:43:30.915Z,954.65
2022-10-15T13:45:57.246Z,954.65
2022-10-15T13:48:23.604Z,954.70
2022-10-15T13:50:49.945Z,954.65
2022-10-15T13:53:16.264Z,954.63
2022-10-15T13:55:42.641Z,954.66
2022-10-15T13:58:08.984Z,954.61
2022-10-15T14:00:35.385Z,954.63
2022-10-15T14:03:01.672Z,954.69
2022-10-15T14:05:27.990Z,954.70
2022-10-15T14:07:54.340Z,954.66
2022-10-15T14:10:20.686Z,954.66
2022-10-15T14:12:46.996Z,954.58
2022-10-15T14:15:13.358Z,954.59
2022-10-15T14:17:39.736Z,954.61
2022-10-15T14:20:26.230Z,954.62
2022-10-15T14:22:32.424Z,954.63
2022-10-15T14:24:58.762Z,954.60
2022-10-15T14:27:25.405Z,954.49
2022-10-15T14:29:51.450Z,954.42
2022-10-15T14:32:17.777Z,954.48
2022-10-15T14:34:44.127Z,954.48
2022-10-15T14:37:10.494Z,954.55
2022-10-15T14:39:36.845Z,954.56
2022-10-15T14:42:03.167Z,954.54
2022-10-15T14:44:29.546Z,954.62
2022-10-15T14:46:55.897Z,954.65
2022-10-15T14:49:22.233Z,954.66
2022-10-15T14:51:48.581Z,954.69
2022-10-15T14:54:14.902Z,954.71
2022-10-15T14:56:41.250Z,954.74
2022-10-15T14:59:07.605Z,954.81
2022-10-15T15:01:33.990Z,954.73
2022-10-15T15:04:00.292Z,954.79
2022-10-15T15:06:26.619Z,954.86
2022-10-15T15:08:52.965Z,954.87
2022-10-15T15:11:19.314Z,954.92
2022-10-15T15:13:45.629Z,954.92
2022-10-15T15:16:11.954Z,954.98
2022-10-15T15:18:38.309Z,954.97
2022-10-15T15:21:04.655Z,954.94
2022-10-15T15:23:30.991Z,955.01
2022-10-15T15:25:57.321Z,955.02
2022-10-15T15:28:23.726Z,955.04
2022-10-15T15:30:50.001Z,955.03
2022-10-15T15:33:16.348Z,955.02
2022-10-15T15:35:42.692Z,955.06
2022-10-15T15:38:09.030Z,955.11
2022-10-15T15:40:35.360Z,955.15
2022-10-15T15:43:01.704Z,955.15
2022-10-15T15:45:28.026Z,955.24
2022-10-15T15:47:54.349Z,955.30
2022-10-15T15:50:20.676Z,955.34
2022-10-15T15:52:47.010Z,955.33
2022-10-15T15:55:13.342Z,955.35
2022-10-15T15:57:39.662Z,955.43
2022-10-15T16:00:05.993Z,955.52
2022-10-15T16:02:32.347Z,955.50
2022-10-15T16:04:58.685Z,955.45
2022-10-15T16:07:28.347Z,955.54
2022-10-15T16:09:51.333Z,955.63
2022-10-15T16:12:17.709Z,955.74
2022-10-15T16:14:44.051Z,955.72
2022-10-15T16:17:10.385Z,955.78
2022-10-15T16:19:36.708Z,955.82
2022-10-15T16:22:03.024Z,955.81
2022-10-15T16:24:29.436Z,955.84
2022-10-15T16:26:55.755Z,955.89
2022-10-15T16:29:22.137Z,955.90
2022-10-15T16:31:48.475Z,955.87
2022-10-15T16:34:14.868Z,955.90
2022-10-15T16:36:41.242Z,955.96
2022-10-15T16:39:07.586Z,956.02
2022-10-15T16:41:33.951Z,956.05
2022-10-15T16:44:00.278Z,956.09
2022-10-15T16:46:26.664Z,956.15
2022-10-15T16:48:52.999Z,956.25
2022-10-15T16:51:19.363Z,956.22
2022-10-15T16:53:45.733Z,956.32
2022-10-15T16:56:12.091Z,956.32
2022-10-15T16:58:38.417Z,956.26
2022-10-15T17:01:04.742Z,956.35
2022-10-15T17:03:31.088Z,956.31
2022-10-15T17:05:57.423Z,956.37
2022-10-15T17:08:26.600Z,956.42
2022-10-15T17:10:50.094Z,956.42
2022-10-15T17:13:16.439Z,956.50
2022-10-15T17:15:42.798Z,956.44
2022-10-15T17:18:09.180Z,956.55
2022-10-15T17:20:35.505Z,956.54
2022-10-15T17:23:01.863Z,956.54
2022-10-15T17:25:28.184Z,956.55
2022-10-15T17:27:54.514Z,956.54
2022-10-15T17:30:20.874Z,956.50
2022-10-15T17:32:47.274Z,956.45
2022-10-15T17:35:13.611Z,956.48
2022-10-15T17:37:40.061Z,956.47
2022-10-15T17:40:06.370Z,956.45
2022-10-15T17:42:32.647Z,956.49
2022-10-15T17:44:58.965Z,956.49
2022-10-15T17:47:25.555Z,956.44
2022-10-15T17:49:51.622Z,956.49
2022-10-15T17:52:18.047Z,956.53
2022-10-15T17:54:44.386Z,956.55
2022-10-15T17:57:10.733Z,956.59
2022-10-15T17:59:37.054Z,956.56
2022-10-15T18:02:03.442Z,956.52
2022-10-15T18:04:29.764Z,956.51
2022-10-15T18:06:56.119Z,956.48
2022-10-15T18:09:22.435Z,956.57
2022-10-15T18:11:48.784Z,956.56
2022-10-15T18:14:15.143Z,956.59
2022-10-15T18:16:41.462Z,956.58
2022-10-15T18:19:07.998Z,956.64
2022-10-15T18:21:34.326Z,956.68
2022-10-15T18:24:00.675Z,956.72
2022-10-15T18:26:27.000Z,956.72
2022-10-15T18:28:53.463Z,956.76
2022-10-15T18:31:19.689Z,956.83
2022-10-15T18:33:46.005Z,956.86
2022-10-15T18:36:12.394Z,956.83
2022-10-15T18:38:38.741Z,956.79
2022-10-15T18:41:05.062Z,956.70
2022-10-15T18:43:31.387Z,956.76
2022-10-15T18:45:57.742Z,956.75
2022-10-15T18:48:24.067Z,956.70
2022-10-15T18:50:50.418Z,956.77
2022-10-15T18:53:16.751Z,956.78
2022-10-15T18:55:43.104Z,956.74
2022-10-15T18:58:09.445Z,956.79
2022-10-15T19:00:35.809Z,956.75
2022-10-15T19:03:02.156Z,956.79
2022-10-15T19:05:28.485Z,956.82
2022-10-15T19:07:54.814Z,956.77
2022-10-15T19:10:21.157Z,956.88
2022-10-15T19:12:47.479Z,956.91
2022-10-15T19:15:13.843Z,957.01
2022-10-15T19:17:40.171Z,957.02
2022-10-15T19:20:06.493Z,956.99
2022-10-15T19:22:32.862Z,957.03
2022-10-15T19:24:59.188Z,957.06
2022-10-15T19:27:25.764Z,957.09
2022-10-15T19:29:51.855Z,957.06
2022-10-15T19:32:18.192Z,957.10
2022-10-15T19:34:44.539Z,957.10
2022-10-15T19:37:10.897Z,957.14
2022-10-15T19:39:37.226Z,957.12
2022-10-15T19:42:03.558Z,957.06
2022-10-15T19:44:29.885Z,957.14
2022-10-15T19:46:56.289Z,957.16
2022-10-15T19:49:22.611Z,957.17
2022-10-15T19:51:48.951Z,957.25
2022-10-15T19:54:15.323Z,957.24
2022-10-15T19:56:41.613Z,957.22
2022-10-15T19:59:07.954Z,957.21
2022-10-15T20:01:34.354Z,957.28
2022-10-15T20:04:04.796Z,957.23
2022-10-15T20:06:26.985Z,957.22
2022-10-15T20:08:53.326Z,957.24
2022-10-15T20:11:19.686Z,957.22
2022-10-15T20:13:46.028Z,957.16
2022-10-15T20:16:12.373Z,957.20
2022-10-15T20:18:38.744Z,957.18
2022-10-15T20:21:05.090Z,957.19
2022-10-15T20:23:31.434Z,957.14
2022-10-15T20:25:57.768Z,957.15
2022-10-15T20:28:24.147Z,957.14
2022-10-15T20:30:50.524Z,957.18
2022-10-15T20:33:16.787Z,957.19
2022-10-15T20:35:43.133Z,957.28
2022-10-15T20:38:09.486Z,957.27
2022-10-15T20:40:35.841Z,957.28
2022-10-15T20:43:02.219Z,957.33
2022-10-15T20:45:28.563Z,957.33
2022-10-15T20:47:54.906Z,957.38
2022-10-15T20:50:21.234Z,957.43
2022-10-15T20:52:47.563Z,957.43
2022-10-15T20:55:13.895Z,957.45
2022-10-15T20:57:40.275Z,957.41
2022-10-15T21:00:06.594Z,957.40
2022-10-15T21:02:32.966Z,957.40
2022-10-15T21:04:59.292Z,957.37
2022-10-15T21:07:25.624Z,957.44
2022-10-15T21:09:51.946Z,957.47
2022-10-15T21:12:18.304Z,957.54
2022-10-15T21:14:44.642Z,957.47
2022-10-15T21:17:10.956Z,957.47
2022-10-15T21:19:37.336Z,957.57
2022-10-15T21:22:03.663Z,957.53
2022-10-15T21:24:30.004Z,957.61
2022-10-15T21:26:56.387Z,957.68
2022-10-15T21:29:22.707Z,957.69
2022-10-15T21:31:49.052Z,957.74
2022-10-15T21:34:15.436Z,957.76
2022-10-15T21:36:41.764Z,957.80
2022-10-15T21:39:08.128Z,957.78
2022-10-15T21:41:34.470Z,957.82
2022-10-15T21:44:00.809Z,957.84
2022-10-15T21:46:27.126Z,957.79
2022-10-15T21:48:53.486Z,957.79
2022-10-15T21:51:19.814Z,957.82
2022-10-15T21:53:46.151Z,957.87
2022-10-15T21:56:12.508Z,957.98
2022-10-15T21:58:38.855Z,957.92
2022-10-15T22:01:05.271Z,957.91
2022-10-15T22:03:31.558Z,957.90
2022-10-15T22:05:57.894Z,957.95
2022-10-15T22:08:24.286Z,957.90
2022-10-15T22:10:50.624Z,957.91
2022-10-15T22:13:16.948Z,957.88
2022-10-15T22:15:43.290Z,957.94
2022-10-15T22:18:09.636Z,957.95
2022-10-15T22:20:36.049Z,958.00
2022-10-15T22:23:02.341Z,957.92
2022-10-15T22:25:28.665Z,957.90
2022-10-15T22:27:55.049Z,958.03
2022-10-15T22:30:21.364Z,957.98
2022-10-15T22:32:47.710Z,957.98
2022-10-15T22:35:14.086Z,957.99
2022-10-15T22:37:40.431Z,957.97
2022-10-15T22:40:06.749Z,957.97
2022-10-15T22:42:33.129Z,957.97
2022-10-15T22:44:59.466Z,958.05
2022-10-15T22:47:25.820Z,958.05
2022-10-15T22:49:52.273Z,958.10
2022-10-15T22:52:18.519Z,958.09
2022-10-15T22:54:44.843Z,958.11
2022-10-15T22:57:11.196Z,958.09
2022-10-15T22:59:37.536Z,958.10
2022-10-15T23:02:03.928Z,958.13
2022-10-15T23:04:30.268Z,958.19
2022-10-15T23:06:56.612Z,958.11
2022-10-15T23:09:22.948Z,958.16
2022-10-15T23:11:49.279Z,958.14
2022-10-15T23:14:15.624Z,958.21
2022-10-15T23:16:41.998Z,958.29
2022-10-15T23:19:08.339Z,958.26
2022-10-15T23:21:34.662Z,958.28
2022-10-15T23:24:01.036Z,958.32
2022-10-15T23:26:30.393Z,958.29
2022-10-15T23:28:53.830Z,958.41
2022-10-15T23:31:20.044Z,958.42
2022-10-15T23:33:46.386Z,958.38
2022-10-15T23:36:12.708Z,958.38
2022-10-15T23:38:39.051Z,958.36
2022-10-15T23:41:05.375Z,958.42
2022-10-15T23:43:31.752Z,958.40
2022-10-15T23:45:58.098Z,958.37
2022-10-15T23:48:24.418Z,958.45
2022-10-15T23:50:50.782Z,958.36
2022-10-15T23:53:17.128Z,958.40
2022-10-15T23:55:43.469Z,958.41
2022-10-15T23:58:09.853Z,958.49
